sensor_id;sensor_type;location;lat;lon;timestamp;P1;durP1;ratioP1;P2;durP2;ratioP2
11907;SDS011;6014;47.690;9.130;2023-06-24T00:01:49;7.60;;;3.92;;
11907;SDS011;6014;47.690;9.130;2023-06-24T00:04:17;7.53;;;3.88;;
11907;SDS011;6014;47.690;9.130;2023-06-24T00:06:47;6.70;;;3.20;;
11907;SDS011;6014;47.690;9.130;2023-06-24T00:09:15;7.50;;;4.20;;
11907;SDS011;6014;47.690;9.130;2023-06-24T00:11:43;7.60;;;4.00;;
11907;SDS011;6014;47.690;9.130;2023-06-24T00:14:11;6.55;;;3.70;;
11907;SDS011;6014;47.690;9.130;2023-06-24T00:16:43;7.72;;;3.80;;
11907;SDS011;6014;47.690;9.130;2023-06-24T00:19:12;6.78;;;3.75;;
11907;SDS011;6014;47.690;9.130;2023-06-24T00:21:40;8.10;;;4.13;;
11907;SDS011;6014;47.690;9.130;2023-06-24T00:24:08;6.47;;;3.55;;
11907;SDS011;6014;47.690;9.130;2023-06-24T00:26:43;7.10;;;4.15;;
11907;SDS011;6014;47.690;9.130;2023-06-24T00:29:12;6.80;;;3.70;;
11907;SDS011;6014;47.690;9.130;2023-06-24T00:31:40;7.37;;;3.80;;
11907;SDS011;6014;47.690;9.130;2023-06-24T00:34:09;7.15;;;3.72;;
11907;SDS011;6014;47.690;9.130;2023-06-24T00:36:38;5.95;;;3.40;;
11907;SDS011;6014;47.690;9.130;2023-06-24T00:39:06;5.80;;;3.03;;
11907;SDS011;6014;47.690;9.130;2023-06-24T00:41:36;7.50;;;3.83;;
11907;SDS011;6014;47.690;9.130;2023-06-24T00:44:04;6.82;;;3.67;;
11907;SDS011;6014;47.690;9.130;2023-06-24T00:46:35;5.70;;;2.95;;
11907;SDS011;6014;47.690;9.130;2023-06-24T00:49:03;12.75;;;4.00;;
11907;SDS011;6014;47.690;9.130;2023-06-24T00:51:33;6.30;;;3.50;;
11907;SDS011;6014;47.690;9.130;2023-06-24T00:54:02;5.80;;;3.25;;
11907;SDS011;6014;47.690;9.130;2023-06-24T00:56:31;5.80;;;3.13;;
11907;SDS011;6014;47.690;9.130;2023-06-24T00:59:04;6.45;;;3.45;;
11907;SDS011;6014;47.690;9.130;2023-06-24T01:01:35;8.07;;;3.47;;
11907;SDS011;6014;47.690;9.130;2023-06-24T01:04:04;7.57;;;3.23;;
11907;SDS011;6014;47.690;9.130;2023-06-24T01:06:36;6.45;;;3.90;;
11907;SDS011;6014;47.690;9.130;2023-06-24T01:09:10;7.17;;;3.80;;
11907;SDS011;6014;47.690;9.130;2023-06-24T01:11:39;9.20;;;3.70;;
11907;SDS011;6014;47.690;9.130;2023-06-24T01:14:08;10.45;;;3.67;;
11907;SDS011;6014;47.690;9.130;2023-06-24T01:16:38;6.67;;;3.60;;
11907;SDS011;6014;47.690;9.130;2023-06-24T01:19:17;6.68;;;3.55;;
11907;SDS011;6014;47.690;9.130;2023-06-24T01:22:06;6.13;;;3.40;;
11907;SDS011;6014;47.690;9.130;2023-06-24T01:24:50;7.63;;;4.07;;
11907;SDS011;6014;47.690;9.130;2023-06-24T01:27:32;6.73;;;3.60;;
11907;SDS011;6014;47.690;9.130;2023-06-24T01:30:17;5.17;;;2.90;;
11907;SDS011;6014;47.690;9.130;2023-06-24T01:33:00;6.37;;;3.53;;
11907;SDS011;6014;47.690;9.130;2023-06-24T01:35:32;7.03;;;3.33;;
11907;SDS011;6014;47.690;9.130;2023-06-24T01:38:06;6.10;;;3.40;;
11907;SDS011;6014;47.690;9.130;2023-06-24T01:43:13;6.50;;;3.57;;
11907;SDS011;6014;47.690;9.130;2023-06-24T01:45:42;6.93;;;3.40;;
11907;SDS011;6014;47.690;9.130;2023-06-24T01:48:18;7.33;;;3.90;;
11907;SDS011;6014;47.690;9.130;2023-06-24T01:50:53;8.60;;;3.67;;
11907;SDS011;6014;47.690;9.130;2023-06-24T01:53:26;5.73;;;3.33;;
11907;SDS011;6014;47.690;9.130;2023-06-24T01:55:56;6.93;;;3.80;;
11907;SDS011;6014;47.690;9.130;2023-06-24T01:58:26;6.33;;;3.33;;
11907;SDS011;6014;47.690;9.130;2023-06-24T02:00:56;5.97;;;3.67;;
11907;SDS011;6014;47.690;9.130;2023-06-24T02:03:32;6.70;;;3.80;;
11907;SDS011;6014;47.690;9.130;2023-06-24T02:06:02;8.23;;;3.87;;
11907;SDS011;6014;47.690;9.130;2023-06-24T02:08:33;9.10;;;3.73;;
11907;SDS011;6014;47.690;9.130;2023-06-24T02:11:03;7.10;;;3.80;;
11907;SDS011;6014;47.690;9.130;2023-06-24T02:13:32;6.23;;;3.30;;
11907;SDS011;6014;47.690;9.130;2023-06-24T02:16:02;6.33;;;3.20;;
11907;SDS011;6014;47.690;9.130;2023-06-24T02:18:34;6.13;;;3.40;;
11907;SDS011;6014;47.690;9.130;2023-06-24T02:21:04;5.83;;;3.33;;
11907;SDS011;6014;47.690;9.130;2023-06-24T02:23:33;6.93;;;3.47;;
11907;SDS011;6014;47.690;9.130;2023-06-24T02:26:06;8.67;;;3.60;;
11907;SDS011;6014;47.690;9.130;2023-06-24T02:28:36;6.77;;;3.70;;
11907;SDS011;6014;47.690;9.130;2023-06-24T02:31:06;7.30;;;3.57;;
11907;SDS011;6014;47.690;9.130;2023-06-24T02:33:38;7.10;;;4.03;;
11907;SDS011;6014;47.690;9.130;2023-06-24T02:36:07;6.87;;;3.37;;
11907;SDS011;6014;47.690;9.130;2023-06-24T02:38:36;6.57;;;3.13;;
11907;SDS011;6014;47.690;9.130;2023-06-24T02:41:11;9.53;;;4.00;;
11907;SDS011;6014;47.690;9.130;2023-06-24T02:43:39;7.23;;;3.10;;
11907;SDS011;6014;47.690;9.130;2023-06-24T02:46:07;8.27;;;3.47;;
11907;SDS011;6014;47.690;9.130;2023-06-24T02:48:42;5.60;;;3.03;;
11907;SDS011;6014;47.690;9.130;2023-06-24T02:51:12;8.47;;;3.33;;
11907;SDS011;6014;47.690;9.130;2023-06-24T02:53:40;7.17;;;3.73;;
11907;SDS011;6014;47.690;9.130;2023-06-24T02:56:10;6.40;;;3.20;;
11907;SDS011;6014;47.690;9.130;2023-06-24T02:58:41;6.53;;;3.30;;
11907;SDS011;6014;47.690;9.130;2023-06-24T03:01:10;6.20;;;3.47;;
11907;SDS011;6014;47.690;9.130;2023-06-24T03:06:33;6.40;;;3.60;;
11907;SDS011;6014;47.690;9.130;2023-06-24T03:09:04;6.43;;;3.90;;
11907;SDS011;6014;47.690;9.130;2023-06-24T03:11:39;6.27;;;3.63;;
11907;SDS011;6014;47.690;9.130;2023-06-24T03:14:08;7.80;;;3.43;;
11907;SDS011;6014;47.690;9.130;2023-06-24T03:16:37;5.97;;;3.43;;
11907;SDS011;6014;47.690;9.130;2023-06-24T03:19:07;7.50;;;4.13;;
11907;SDS011;6014;47.690;9.130;2023-06-24T03:21:35;7.73;;;3.60;;
11907;SDS011;6014;47.690;9.130;2023-06-24T03:24:03;8.33;;;4.03;;
11907;SDS011;6014;47.690;9.130;2023-06-24T03:26:32;6.37;;;3.40;;
11907;SDS011;6014;47.690;9.130;2023-06-24T03:29:01;7.00;;;4.13;;
11907;SDS011;6014;47.690;9.130;2023-06-24T03:31:29;6.33;;;3.63;;
11907;SDS011;6014;47.690;9.130;2023-06-24T03:33:59;7.87;;;3.40;;
11907;SDS011;6014;47.690;9.130;2023-06-24T03:36:29;5.77;;;3.57;;
11907;SDS011;6014;47.690;9.130;2023-06-24T03:38:57;10.07;;;3.93;;
11907;SDS011;6014;47.690;9.130;2023-06-24T03:41:25;8.93;;;3.23;;
11907;SDS011;6014;47.690;9.130;2023-06-24T03:43:54;6.37;;;3.40;;
11907;SDS011;6014;47.690;9.130;2023-06-24T03:46:22;6.97;;;3.60;;
11907;SDS011;6014;47.690;9.130;2023-06-24T03:48:50;6.73;;;3.57;;
11907;SDS011;6014;47.690;9.130;2023-06-24T03:51:18;7.57;;;3.70;;
11907;SDS011;6014;47.690;9.130;2023-06-24T03:53:48;7.13;;;3.97;;
11907;SDS011;6014;47.690;9.130;2023-06-24T03:56:16;8.30;;;4.20;;
11907;SDS011;6014;47.690;9.130;2023-06-24T03:58:44;6.77;;;3.77;;
11907;SDS011;6014;47.690;9.130;2023-06-24T04:01:13;8.20;;;3.97;;
11907;SDS011;6014;47.690;9.130;2023-06-24T04:03:41;10.20;;;3.87;;
11907;SDS011;6014;47.690;9.130;2023-06-24T04:06:09;7.83;;;3.77;;
11907;SDS011;6014;47.690;9.130;2023-06-24T04:08:37;6.00;;;3.50;;
11907;SDS011;6014;47.690;9.130;2023-06-24T04:11:07;6.83;;;3.70;;
11907;SDS011;6014;47.690;9.130;2023-06-24T04:13:35;6.87;;;3.73;;
11907;SDS011;6014;47.690;9.130;2023-06-24T04:16:04;5.97;;;3.30;;
11907;SDS011;6014;47.690;9.130;2023-06-24T04:18:32;6.97;;;3.30;;
11907;SDS011;6014;47.690;9.130;2023-06-24T04:21:00;6.40;;;3.33;;
11907;SDS011;6014;47.690;9.130;2023-06-24T04:23:29;9.80;;;4.20;;
11907;SDS011;6014;47.690;9.130;2023-06-24T04:25:57;6.93;;;3.83;;
11907;SDS011;6014;47.690;9.130;2023-06-24T04:28:26;6.53;;;3.30;;
11907;SDS011;6014;47.690;9.130;2023-06-24T04:30:55;6.43;;;3.50;;
11907;SDS011;6014;47.690;9.130;2023-06-24T04:33:24;8.73;;;3.73;;
11907;SDS011;6014;47.690;9.130;2023-06-24T04:35:52;6.77;;;3.67;;
11907;SDS011;6014;47.690;9.130;2023-06-24T04:38:23;6.23;;;3.57;;
11907;SDS011;6014;47.690;9.130;2023-06-24T04:40:51;6.53;;;3.23;;
11907;SDS011;6014;47.690;9.130;2023-06-24T04:43:19;7.93;;;3.70;;
11907;SDS011;6014;47.690;9.130;2023-06-24T04:45:49;5.87;;;3.30;;
11907;SDS011;6014;47.690;9.130;2023-06-24T04:48:18;6.07;;;3.60;;
11907;SDS011;6014;47.690;9.130;2023-06-24T04:50:46;6.53;;;3.83;;
11907;SDS011;6014;47.690;9.130;2023-06-24T04:53:14;6.47;;;3.10;;
11907;SDS011;6014;47.690;9.130;2023-06-24T04:55:42;7.23;;;3.87;;
11907;SDS011;6014;47.690;9.130;2023-06-24T04:58:10;6.50;;;3.43;;
11907;SDS011;6014;47.690;9.130;2023-06-24T05:00:38;6.40;;;3.30;;
11907;SDS011;6014;47.690;9.130;2023-06-24T05:03:08;7.55;;;4.25;;
11907;SDS011;6014;47.690;9.130;2023-06-24T05:05:36;7.03;;;3.83;;
11907;SDS011;6014;47.690;9.130;2023-06-24T05:08:05;8.93;;;4.57;;
11907;SDS011;6014;47.690;9.130;2023-06-24T05:10:33;6.88;;;3.63;;
11907;SDS011;6014;47.690;9.130;2023-06-24T05:13:01;7.07;;;4.22;;
11907;SDS011;6014;47.690;9.130;2023-06-24T05:15:30;6.85;;;3.83;;
11907;SDS011;6014;47.690;9.130;2023-06-24T05:17:59;7.22;;;4.05;;
11907;SDS011;6014;47.690;9.130;2023-06-24T05:20:28;7.10;;;4.07;;
11907;SDS011;6014;47.690;9.130;2023-06-24T05:22:57;9.63;;;4.03;;
11907;SDS011;6014;47.690;9.130;2023-06-24T05:25:25;6.85;;;4.25;;
11907;SDS011;6014;47.690;9.130;2023-06-24T05:27:53;8.38;;;4.13;;
11907;SDS011;6014;47.690;9.130;2023-06-24T05:30:21;7.15;;;3.80;;
11907;SDS011;6014;47.690;9.130;2023-06-24T05:32:49;7.47;;;4.38;;
11907;SDS011;6014;47.690;9.130;2023-06-24T05:35:19;6.95;;;3.92;;
11907;SDS011;6014;47.690;9.130;2023-06-24T05:37:48;7.05;;;4.38;;
11907;SDS011;6014;47.690;9.130;2023-06-24T05:40:16;8.07;;;3.65;;
11907;SDS011;6014;47.690;9.130;2023-06-24T05:42:45;7.13;;;3.63;;
11907;SDS011;6014;47.690;9.130;2023-06-24T05:45:13;7.93;;;3.97;;
11907;SDS011;6014;47.690;9.130;2023-06-24T05:47:41;8.23;;;3.40;;
11907;SDS011;6014;47.690;9.130;2023-06-24T05:50:09;6.63;;;3.70;;
11907;SDS011;6014;47.690;9.130;2023-06-24T05:52:37;6.60;;;3.58;;
11907;SDS011;6014;47.690;9.130;2023-06-24T05:55:07;6.80;;;3.38;;
11907;SDS011;6014;47.690;9.130;2023-06-24T06:00:07;6.32;;;3.20;;
11907;SDS011;6014;47.690;9.130;2023-06-24T06:02:36;9.13;;;3.42;;
11907;SDS011;6014;47.690;9.130;2023-06-24T06:05:04;9.32;;;3.47;;
11907;SDS011;6014;47.690;9.130;2023-06-24T06:07:33;6.22;;;3.20;;
11907;SDS011;6014;47.690;9.130;2023-06-24T06:10:04;5.57;;;3.15;;
11907;SDS011;6014;47.690;9.130;2023-06-24T06:12:34;6.28;;;3.42;;
11907;SDS011;6014;47.690;9.130;2023-06-24T06:15:02;6.07;;;3.00;;
11907;SDS011;6014;47.690;9.130;2023-06-24T06:17:31;6.25;;;3.10;;
11907;SDS011;6014;47.690;9.130;2023-06-24T06:20:00;6.50;;;2.90;;
11907;SDS011;6014;47.690;9.130;2023-06-24T06:22:28;5.97;;;2.95;;
11907;SDS011;6014;47.690;9.130;2023-06-24T06:24:58;5.68;;;2.85;;
11907;SDS011;6014;47.690;9.130;2023-06-24T06:27:36;5.72;;;2.80;;
11907;SDS011;6014;47.690;9.130;2023-06-24T06:30:05;7.45;;;4.78;;
11907;SDS011;6014;47.690;9.130;2023-06-24T06:32:34;5.22;;;3.35;;
11907;SDS011;6014;47.690;9.130;2023-06-24T06:35:02;4.80;;;2.55;;
11907;SDS011;6014;47.690;9.130;2023-06-24T06:37:31;5.85;;;3.13;;
11907;SDS011;6014;47.690;9.130;2023-06-24T06:39:59;6.05;;;2.85;;
11907;SDS011;6014;47.690;9.130;2023-06-24T06:42:28;6.40;;;3.35;;
11907;SDS011;6014;47.690;9.130;2023-06-24T06:44:58;5.47;;;2.90;;
11907;SDS011;6014;47.690;9.130;2023-06-24T06:47:26;5.28;;;3.15;;
11907;SDS011;6014;47.690;9.130;2023-06-24T06:49:54;5.53;;;3.10;;
11907;SDS011;6014;47.690;9.130;2023-06-24T06:52:22;5.32;;;2.92;;
11907;SDS011;6014;47.690;9.130;2023-06-24T06:54:59;5.50;;;2.92;;
11907;SDS011;6014;47.690;9.130;2023-06-24T06:57:28;6.63;;;3.55;;
11907;SDS011;6014;47.690;9.130;2023-06-24T06:59:57;5.97;;;3.00;;
11907;SDS011;6014;47.690;9.130;2023-06-24T07:02:25;8.88;;;3.70;;
11907;SDS011;6014;47.690;9.130;2023-06-24T07:04:53;6.40;;;3.50;;
11907;SDS011;6014;47.690;9.130;2023-06-24T07:07:22;6.90;;;3.20;;
11907;SDS011;6014;47.690;9.130;2023-06-24T07:09:50;6.05;;;3.42;;
11907;SDS011;6014;47.690;9.130;2023-06-24T07:12:18;7.93;;;4.00;;
11907;SDS011;6014;47.690;9.130;2023-06-24T07:14:55;6.53;;;3.30;;
11907;SDS011;6014;47.690;9.130;2023-06-24T07:17:24;5.53;;;3.05;;
11907;SDS011;6014;47.690;9.130;2023-06-24T07:19:53;6.25;;;3.10;;
11907;SDS011;6014;47.690;9.130;2023-06-24T07:22:21;5.97;;;3.03;;
11907;SDS011;6014;47.690;9.130;2023-06-24T07:24:49;6.97;;;4.38;;
11907;SDS011;6014;47.690;9.130;2023-06-24T07:27:25;6.47;;;2.80;;
11907;SDS011;6014;47.690;9.130;2023-06-24T07:29:53;5.57;;;3.15;;
11907;SDS011;6014;47.690;9.130;2023-06-24T07:32:21;6.43;;;3.25;;
11907;SDS011;6014;47.690;9.130;2023-06-24T07:34:51;5.72;;;3.13;;
11907;SDS011;6014;47.690;9.130;2023-06-24T07:37:19;5.65;;;2.80;;
11907;SDS011;6014;47.690;9.130;2023-06-24T07:39:50;6.25;;;3.20;;
11907;SDS011;6014;47.690;9.130;2023-06-24T07:42:19;6.80;;;3.70;;
11907;SDS011;6014;47.690;9.130;2023-06-24T07:44:49;5.68;;;2.95;;
11907;SDS011;6014;47.690;9.130;2023-06-24T07:47:17;6.35;;;3.60;;
11907;SDS011;6014;47.690;9.130;2023-06-24T07:49:46;5.70;;;3.38;;
11907;SDS011;6014;47.690;9.130;2023-06-24T07:52:15;6.25;;;3.25;;
11907;SDS011;6014;47.690;9.130;2023-06-24T07:54:44;6.20;;;3.38;;
11907;SDS011;6014;47.690;9.130;2023-06-24T07:57:12;5.50;;;2.97;;
11907;SDS011;6014;47.690;9.130;2023-06-24T07:59:40;8.38;;;3.38;;
11907;SDS011;6014;47.690;9.130;2023-06-24T08:02:08;5.95;;;3.10;;
11907;SDS011;6014;47.690;9.130;2023-06-24T08:04:36;6.45;;;3.00;;
11907;SDS011;6014;47.690;9.130;2023-06-24T08:07:05;6.22;;;3.20;;
11907;SDS011;6014;47.690;9.130;2023-06-24T08:09:34;6.57;;;3.47;;
11907;SDS011;6014;47.690;9.130;2023-06-24T08:12:03;7.05;;;2.92;;
11907;SDS011;6014;47.690;9.130;2023-06-24T08:14:31;6.10;;;3.00;;
11907;SDS011;6014;47.690;9.130;2023-06-24T08:16:59;6.22;;;3.00;;
11907;SDS011;6014;47.690;9.130;2023-06-24T08:19:28;5.47;;;2.67;;
11907;SDS011;6014;47.690;9.130;2023-06-24T08:21:56;5.22;;;2.85;;
11907;SDS011;6014;47.690;9.130;2023-06-24T08:24:25;4.82;;;2.72;;
11907;SDS011;6014;47.690;9.130;2023-06-24T08:26:54;5.07;;;2.53;;
11907;SDS011;6014;47.690;9.130;2023-06-24T08:29:23;6.50;;;2.97;;
11907;SDS011;6014;47.690;9.130;2023-06-24T08:31:51;6.65;;;2.95;;
11907;SDS011;6014;47.690;9.130;2023-06-24T08:34:19;6.15;;;3.03;;
11907;SDS011;6014;47.690;9.130;2023-06-24T08:36:47;5.53;;;3.08;;
11907;SDS011;6014;47.690;9.130;2023-06-24T08:39:16;5.35;;;2.88;;
11907;SDS011;6014;47.690;9.130;2023-06-24T08:41:44;7.65;;;2.90;;
11907;SDS011;6014;47.690;9.130;2023-06-24T08:44:17;8.02;;;2.97;;
11907;SDS011;6014;47.690;9.130;2023-06-24T08:46:46;5.15;;;2.95;;
11907;SDS011;6014;47.690;9.130;2023-06-24T08:49:19;6.40;;;3.10;;
11907;SDS011;6014;47.690;9.130;2023-06-24T08:51:58;5.28;;;3.05;;
11907;SDS011;6014;47.690;9.130;2023-06-24T08:54:30;5.47;;;3.20;;
11907;SDS011;6014;47.690;9.130;2023-06-24T08:57:01;5.13;;;3.13;;
11907;SDS011;6014;47.690;9.130;2023-06-24T08:59:33;5.95;;;3.13;;
11907;SDS011;6014;47.690;9.130;2023-06-24T09:02:01;5.38;;;3.28;;
11907;SDS011;6014;47.690;9.130;2023-06-24T09:04:30;5.85;;;3.42;;
11907;SDS011;6014;47.690;9.130;2023-06-24T09:06:58;5.35;;;3.17;;
11907;SDS011;6014;47.690;9.130;2023-06-24T09:09:26;5.35;;;3.20;;
11907;SDS011;6014;47.690;9.130;2023-06-24T09:11:55;5.55;;;3.47;;
11907;SDS011;6014;47.690;9.130;2023-06-24T09:14:25;6.35;;;3.17;;
11907;SDS011;6014;47.690;9.130;2023-06-24T09:16:56;5.22;;;3.03;;
11907;SDS011;6014;47.690;9.130;2023-06-24T09:19:27;5.88;;;3.13;;
11907;SDS011;6014;47.690;9.130;2023-06-24T09:21:57;6.50;;;3.45;;
11907;SDS011;6014;47.690;9.130;2023-06-24T09:24:30;5.63;;;3.00;;
11907;SDS011;6014;47.690;9.130;2023-06-24T09:26:58;7.22;;;3.38;;
11907;SDS011;6014;47.690;9.130;2023-06-24T09:29:27;5.45;;;2.88;;
11907;SDS011;6014;47.690;9.130;2023-06-24T09:34:31;5.60;;;3.08;;
11907;SDS011;6014;47.690;9.130;2023-06-24T09:37:00;5.55;;;2.90;;
11907;SDS011;6014;47.690;9.130;2023-06-24T09:39:28;5.25;;;2.90;;
11907;SDS011;6014;47.690;9.130;2023-06-24T09:42:03;5.35;;;2.95;;
11907;SDS011;6014;47.690;9.130;2023-06-24T09:44:33;5.68;;;3.20;;
11907;SDS011;6014;47.690;9.130;2023-06-24T09:47:03;5.63;;;2.95;;
11907;SDS011;6014;47.690;9.130;2023-06-24T09:49:31;5.38;;;3.00;;
11907;SDS011;6014;47.690;9.130;2023-06-24T09:51:59;7.38;;;3.40;;
11907;SDS011;6014;47.690;9.130;2023-06-24T09:54:30;5.35;;;3.08;;
11907;SDS011;6014;47.690;9.130;2023-06-24T09:57:01;6.53;;;2.92;;
11907;SDS011;6014;47.690;9.130;2023-06-24T09:59:30;7.70;;;3.33;;
11907;SDS011;6014;47.690;9.130;2023-06-24T10:02:00;6.10;;;3.28;;
11907;SDS011;6014;47.690;9.130;2023-06-24T10:04:35;5.93;;;3.00;;
11907;SDS011;6014;47.690;9.130;2023-06-24T10:07:04;6.07;;;3.03;;
11907;SDS011;6014;47.690;9.130;2023-06-24T10:09:32;5.28;;;2.70;;
11907;SDS011;6014;47.690;9.130;2023-06-24T10:12:01;5.45;;;3.00;;
11907;SDS011;6014;47.690;9.130;2023-06-24T10:14:29;5.80;;;2.70;;
11907;SDS011;6014;47.690;9.130;2023-06-24T10:17:03;5.43;;;2.75;;
11907;SDS011;6014;47.690;9.130;2023-06-24T10:19:37;5.25;;;3.28;;
11907;SDS011;6014;47.690;9.130;2023-06-24T10:22:07;7.78;;;3.10;;
11907;SDS011;6014;47.690;9.130;2023-06-24T10:24:36;6.50;;;3.10;;
11907;SDS011;6014;47.690;9.130;2023-06-24T10:27:08;6.30;;;2.78;;
11907;SDS011;6014;47.690;9.130;2023-06-24T10:29:44;4.85;;;2.90;;
11907;SDS011;6014;47.690;9.130;2023-06-24T10:32:14;5.05;;;3.20;;
11907;SDS011;6014;47.690;9.130;2023-06-24T10:34:43;5.00;;;2.47;;
11907;SDS011;6014;47.690;9.130;2023-06-24T10:37:12;6.03;;;3.00;;
11907;SDS011;6014;47.690;9.130;2023-06-24T10:39:49;4.15;;;2.42;;
11907;SDS011;6014;47.690;9.130;2023-06-24T10:45:16;4.70;;;2.53;;
11907;SDS011;6014;47.690;9.130;2023-06-24T10:47:47;5.13;;;2.88;;
11907;SDS011;6014;47.690;9.130;2023-06-24T10:50:18;4.35;;;2.53;;
11907;SDS011;6014;47.690;9.130;2023-06-24T10:52:47;4.20;;;2.50;;
11907;SDS011;6014;47.690;9.130;2023-06-24T10:55:17;5.80;;;2.63;;
11907;SDS011;6014;47.690;9.130;2023-06-24T10:57:46;5.75;;;2.95;;
11907;SDS011;6014;47.690;9.130;2023-06-24T11:00:14;5.53;;;2.63;;
11907;SDS011;6014;47.690;9.130;2023-06-24T11:02:43;6.40;;;3.20;;
11907;SDS011;6014;47.690;9.130;2023-06-24T11:05:13;5.47;;;2.65;;
11907;SDS011;6014;47.690;9.130;2023-06-24T11:07:41;5.97;;;2.67;;
11907;SDS011;6014;47.690;9.130;2023-06-24T11:10:11;5.05;;;2.60;;
11907;SDS011;6014;47.690;9.130;2023-06-24T11:12:41;4.50;;;2.63;;
11907;SDS011;6014;47.690;9.130;2023-06-24T11:15:18;5.13;;;2.95;;
11907;SDS011;6014;47.690;9.130;2023-06-24T11:17:50;4.85;;;2.92;;
11907;SDS011;6014;47.690;9.130;2023-06-24T11:20:20;5.32;;;2.95;;
11907;SDS011;6014;47.690;9.130;2023-06-24T11:23:07;5.25;;;2.72;;
11907;SDS011;6014;47.690;9.130;2023-06-24T11:25:56;4.22;;;2.15;;
11907;SDS011;6014;47.690;9.130;2023-06-24T11:28:58;5.60;;;2.80;;
11907;SDS011;6014;47.690;9.130;2023-06-24T11:31:36;5.10;;;2.60;;
11907;SDS011;6014;47.690;9.130;2023-06-24T11:34:10;3.88;;;2.10;;
11907;SDS011;6014;47.690;9.130;2023-06-24T11:37:16;4.78;;;2.75;;
11907;SDS011;6014;47.690;9.130;2023-06-24T11:40:02;5.35;;;2.70;;
11907;SDS011;6014;47.690;9.130;2023-06-24T11:42:37;5.07;;;2.50;;
11907;SDS011;6014;47.690;9.130;2023-06-24T11:45:19;4.95;;;2.70;;
11907;SDS011;6014;47.690;9.130;2023-06-24T11:48:01;4.85;;;2.50;;
11907;SDS011;6014;47.690;9.130;2023-06-24T11:50:49;4.05;;;2.38;;
11907;SDS011;6014;47.690;9.130;2023-06-24T11:53:44;4.90;;;2.40;;
11907;SDS011;6014;47.690;9.130;2023-06-24T11:56:35;3.90;;;2.20;;
11907;SDS011;6014;47.690;9.130;2023-06-24T11:59:19;4.38;;;2.35;;
11907;SDS011;6014;47.690;9.130;2023-06-24T12:02:03;4.65;;;2.20;;
11907;SDS011;6014;47.690;9.130;2023-06-24T12:04:56;5.40;;;2.45;;
11907;SDS011;6014;47.690;9.130;2023-06-24T12:07:41;5.03;;;2.58;;
11907;SDS011;6014;47.690;9.130;2023-06-24T12:10:31;5.00;;;2.72;;
11907;SDS011;6014;47.690;9.130;2023-06-24T12:13:11;4.68;;;2.47;;
11907;SDS011;6014;47.690;9.130;2023-06-24T12:15:54;4.75;;;2.75;;
11907;SDS011;6014;47.690;9.130;2023-06-24T12:18:46;4.65;;;2.25;;
11907;SDS011;6014;47.690;9.130;2023-06-24T12:21:32;4.72;;;2.67;;
11907;SDS011;6014;47.690;9.130;2023-06-24T12:24:13;5.15;;;2.58;;
11907;SDS011;6014;47.690;9.130;2023-06-24T12:27:10;4.85;;;2.60;;
11907;SDS011;6014;47.690;9.130;2023-06-24T12:29:55;4.75;;;2.65;;
11907;SDS011;6014;47.690;9.130;2023-06-24T12:32:45;4.72;;;2.50;;
11907;SDS011;6014;47.690;9.130;2023-06-24T12:35:21;4.53;;;2.40;;
11907;SDS011;6014;47.690;9.130;2023-06-24T12:38:18;4.90;;;2.78;;
11907;SDS011;6014;47.690;9.130;2023-06-24T12:41:02;6.38;;;2.50;;
11907;SDS011;6014;47.690;9.130;2023-06-24T12:43:48;3.97;;;2.20;;
11907;SDS011;6014;47.690;9.130;2023-06-24T12:46:37;6.10;;;2.47;;
11907;SDS011;6014;47.690;9.130;2023-06-24T12:49:11;4.30;;;2.45;;
11907;SDS011;6014;47.690;9.130;2023-06-24T12:51:56;6.57;;;2.50;;
11907;SDS011;6014;47.690;9.130;2023-06-24T12:54:40;5.10;;;2.60;;
11907;SDS011;6014;47.690;9.130;2023-06-24T12:57:26;5.10;;;2.70;;
11907;SDS011;6014;47.690;9.130;2023-06-24T13:00:18;4.57;;;2.70;;
11907;SDS011;6014;47.690;9.130;2023-06-24T13:02:56;5.18;;;2.55;;
11907;SDS011;6014;47.690;9.130;2023-06-24T13:05:39;5.65;;;2.50;;
11907;SDS011;6014;47.690;9.130;2023-06-24T13:08:27;5.32;;;2.53;;
11907;SDS011;6014;47.690;9.130;2023-06-24T13:11:02;5.55;;;2.60;;
11907;SDS011;6014;47.690;9.130;2023-06-24T13:13:37;4.07;;;2.33;;
11907;SDS011;6014;47.690;9.130;2023-06-24T13:16:21;4.70;;;2.47;;
11907;SDS011;6014;47.690;9.130;2023-06-24T13:19:04;4.55;;;2.50;;
11907;SDS011;6014;47.690;9.130;2023-06-24T13:21:52;3.90;;;2.30;;
11907;SDS011;6014;47.690;9.130;2023-06-24T13:24:29;5.03;;;2.53;;
11907;SDS011;6014;47.690;9.130;2023-06-24T13:27:16;4.55;;;2.47;;
11907;SDS011;6014;47.690;9.130;2023-06-24T13:30:15;4.88;;;2.30;;
11907;SDS011;6014;47.690;9.130;2023-06-24T13:33:03;4.82;;;2.50;;
11907;SDS011;6014;47.690;9.130;2023-06-24T13:35:42;4.68;;;2.50;;
11907;SDS011;6014;47.690;9.130;2023-06-24T13:38:20;4.53;;;2.42;;
11907;SDS011;6014;47.690;9.130;2023-06-24T13:41:16;5.60;;;2.28;;
11907;SDS011;6014;47.690;9.130;2023-06-24T13:44:07;4.82;;;2.35;;
11907;SDS011;6014;47.690;9.130;2023-06-24T13:46:44;5.78;;;2.70;;
11907;SDS011;6014;47.690;9.130;2023-06-24T13:49:22;4.90;;;2.60;;
11907;SDS011;6014;47.690;9.130;2023-06-24T13:52:13;5.15;;;2.40;;
11907;SDS011;6014;47.690;9.130;2023-06-24T13:54:47;3.90;;;2.10;;
11907;SDS011;6014;47.690;9.130;2023-06-24T13:57:29;5.63;;;2.67;;
11907;SDS011;6014;47.690;9.130;2023-06-24T14:00:08;4.90;;;2.95;;
11907;SDS011;6014;47.690;9.130;2023-06-24T14:02:50;5.82;;;2.47;;
11907;SDS011;6014;47.690;9.130;2023-06-24T14:05:27;4.32;;;2.25;;
11907;SDS011;6014;47.690;9.130;2023-06-24T14:08:07;5.00;;;2.45;;
11907;SDS011;6014;47.690;9.130;2023-06-24T14:10:54;4.70;;;2.40;;
11907;SDS011;6014;47.690;9.130;2023-06-24T14:13:34;4.53;;;2.40;;
11907;SDS011;6014;47.690;9.130;2023-06-24T14:16:13;5.00;;;2.53;;
11907;SDS011;6014;47.690;9.130;2023-06-24T14:19:02;5.68;;;2.38;;
11907;SDS011;6014;47.690;9.130;2023-06-24T14:21:49;4.72;;;2.53;;
11907;SDS011;6014;47.690;9.130;2023-06-24T14:24:27;4.70;;;2.30;;
11907;SDS011;6014;47.690;9.130;2023-06-24T14:27:11;5.10;;;2.55;;
11907;SDS011;6014;47.690;9.130;2023-06-24T14:29:59;5.22;;;2.80;;
11907;SDS011;6014;47.690;9.130;2023-06-24T14:32:37;5.72;;;2.63;;
11907;SDS011;6014;47.690;9.130;2023-06-24T14:35:17;7.03;;;3.00;;
11907;SDS011;6014;47.690;9.130;2023-06-24T14:37:58;4.50;;;2.63;;
11907;SDS011;6014;47.690;9.130;2023-06-24T14:40:57;4.68;;;2.42;;
11907;SDS011;6014;47.690;9.130;2023-06-24T14:43:43;5.20;;;2.38;;
11907;SDS011;6014;47.690;9.130;2023-06-24T14:46:20;4.68;;;2.75;;
11907;SDS011;6014;47.690;9.130;2023-06-24T14:49:15;4.93;;;2.60;;
11907;SDS011;6014;47.690;9.130;2023-06-24T14:51:58;4.30;;;2.45;;
11907;SDS011;6014;47.690;9.130;2023-06-24T14:54:50;5.88;;;2.60;;
11907;SDS011;6014;47.690;9.130;2023-06-24T14:57:35;5.30;;;2.53;;
11907;SDS011;6014;47.690;9.130;2023-06-24T15:00:10;5.50;;;2.80;;
11907;SDS011;6014;47.690;9.130;2023-06-24T15:02:46;4.50;;;2.50;;
11907;SDS011;6014;47.690;9.130;2023-06-24T15:05:18;4.75;;;2.45;;
11907;SDS011;6014;47.690;9.130;2023-06-24T15:08:04;5.13;;;2.58;;
11907;SDS011;6014;47.690;9.130;2023-06-24T15:10:44;4.65;;;2.55;;
11907;SDS011;6014;47.690;9.130;2023-06-24T15:13:23;4.78;;;2.35;;
11907;SDS011;6014;47.690;9.130;2023-06-24T15:16:04;5.20;;;2.63;;
11907;SDS011;6014;47.690;9.130;2023-06-24T15:18:50;5.90;;;2.63;;
11907;SDS011;6014;47.690;9.130;2023-06-24T15:21:25;5.00;;;2.70;;
11907;SDS011;6014;47.690;9.130;2023-06-24T15:24:06;5.22;;;2.45;;
11907;SDS011;6014;47.690;9.130;2023-06-24T15:26:48;4.20;;;1.95;;
11907;SDS011;6014;47.690;9.130;2023-06-24T15:29:34;5.07;;;2.38;;
11907;SDS011;6014;47.690;9.130;2023-06-24T15:32:37;4.63;;;2.58;;
11907;SDS011;6014;47.690;9.130;2023-06-24T15:35:35;5.30;;;2.60;;
11907;SDS011;6014;47.690;9.130;2023-06-24T15:38:13;5.55;;;2.72;;
11907;SDS011;6014;47.690;9.130;2023-06-24T15:40:52;5.43;;;2.40;;
11907;SDS011;6014;47.690;9.130;2023-06-24T15:43:33;4.43;;;2.60;;
11907;SDS011;6014;47.690;9.130;2023-06-24T15:46:10;4.20;;;2.22;;
11907;SDS011;6014;47.690;9.130;2023-06-24T15:48:46;4.80;;;2.53;;
11907;SDS011;6014;47.690;9.130;2023-06-24T15:51:34;4.72;;;2.60;;
11907;SDS011;6014;47.690;9.130;2023-06-24T15:54:18;4.72;;;2.72;;